Terminal Aerodrome Forecast
Issued by NWS Tampa Bay Area, FL

Home | Current Version | Previous Version | Text Only | Print | Product List | Glossary On
Versions: 1 2 3 4 5 6 7 8 9 10 11 12 13 14 15 16 17 18 19 20 21 22 23 24
000
FTUS42 KTBW 290901 AAA
TAFTPA
TAF AMD
KTPA 290901Z 2909/3006 VRB03KT P6SM FEW060 SCT190
     FM291800 26006KT P6SM SCT045
     FM300400 VRB03KT P6SM FEW250=

USA.gov is the U.S. government's official web portal to all federal, state and local government web resources and services.